Orlando, FL

2:10 AM EDT on May 04, 2015 (GMT -0400)
WFTV, Channel 9 | | Change Station
CLOSE
Current Station
Personal Weather Station
Location: Orlando, FL
Elevation: 92 ft
Nearby Weather Stations

Elev 92 ft 28.54 °N, 81.37 °W | Updated 1 hour ago

Clear
Clear
67.0 °F
Feels Like 67.0 °F
N
4.0
Wind Variable Wind from NE
Gusts 4.0 mph

Today
High -- | Low -- °F
--% Chance of Precip.
Yesterday
High -- | Low -- °F
Precip. -- in
6:42 AM 8:02 PM
Full, 100% visible
Pressure 30.19 in
Visibility 10.0 miles
Clouds Clear
Dew Point 56 °F
Humidity 69%
Rainfall 0.00 in
Snow Depth Not available.
UV 0 out of 12
Pollen 7.20 out of 12
Air Quality Not available.
Flu Activity Local Activity
METAR KORL 040553Z AUTO 06005KT 10SM CLR 19/13 A3018 RMK AO2 SLP223 T01890128 10233 20189 56003

More Conditions Fewer Conditions

Pressure 30.19 in
Visibility 10.0 miles
Clouds Clear
Dew Point 56 °F
Humidity 69%
Rainfall 0.00 in
Snow Depth Not available.
UV 0 out of 12
Pollen 7.20 out of 12
Air Quality Not available.
Flu Activity Local Activity
METAR KORL 040553Z AUTO 06005KT 10SM CLR 19/13 A3018 RMK AO2 SLP223 T01890128 10233 20189 56003

More Conditions Fewer Conditions

Nepal has a long way to go to dig out and rebuild from a devastating earthquake. We have teamed up with several charities and organizations to make contributing to the relief effort as easy as possible.
How you can help: Portlight Strategies | Red Cross
Nowcast | as of 9:56 PM EDT on May 3, 2015

Isolated Atlantic showers will move toward the west around 15 mph. A few showers or sprinkles may cross the coast after midnight. Otherwise...skies will be partly cloudy with low temperatures in the low to mid 60s Monday morning over the interior; a little milder along the coast in the upper 60s and lower 70s due to persistent onshore flow. Additional details...including graphics are available online at: http://www.Srh.NOAA.Gov/mlb/blog.Php

×

10-Day Weather Forecast

Almanac

Astronomy

May. 04, 2015 Rise Set
Actual Time
Civil Twilight
Nautical Twilight
Astronomical Twilight
Moon
Length of Visible Light
Length of Day
Tomorrow will be .
, % of the Moon is Illuminated

Today's Extremes

State Highs State Lows

Community

WunderPhotos

Upload Photos

1,818,535 photos uploaded!

WunderBlogs® & News

Nearby

Air Quality

  Air Quality AQ Index Pollutant
Not available.

Snow Depth

Station Depth Elevation

Earthquake Activity

City Distance Mag. Time & Date
Minimum magnitude displayed is 2.5.

Coastal Water Temperatures

Place Temperature

Stations

Nearby Weather Stations

Station Location Temp. Windchill Dew Point Humidity Wind Precip. Elev Updated Type